Arnot, Pennsylvania
Current Conditions -  °F | °C
As of 6:55 AM on Thursday 27 Nov 2014 (Local Time) from KN38 Reporting Station
Light Rain Light Rain  
Wind Chill: 19°   Ceiling: NA
Heat Index: 27°   Visibility: 7mi
Dew Point: 23°   Wind: 7mph
Humidity: 86%   Direction: 320°NW
Pressure: 29.96"   Gusts: NA
Location:  41.66°N, 77.12°W
Report Text: KN38 271155Z AUTO 32006KT 7SM -RA M03/M05 A2996 RMK AO2
Loading
Personal Weather Stations






























Interactive Weather Map New forecast layout! Learn more

10-Day Weather Forecast

Advertisements
Track Severe Weather on mobile